DXX1631 EKVG-EKCH
Flight info
| Callsign | DXX1631 |
|---|---|
| Flight time | N/A |
| Altitude | 35000 |
| Route | ODEVA DCT RIXUN DCT PEPIN DCT TESPI |
| Aircraft | A321/M-SDE3FGHIRWY/LB1 |
Departure
| Time | 2026-04-29 21:40 |
|---|---|
| Airport | Vágar Airport (EKVG) |
Arrival
| Time | N/A |
|---|---|
| Airport | Copenhagen Kastrup Airport (EKCH) |
| Time | Latitude | Longitude | Altitude | Speed | Heading |
|---|---|---|---|---|---|
| 2026-04-29 21:12 | 62.06707 | -7.28052 | 287 ft | 0 kts | 71° |
| 2026-04-29 21:28 | 62.06706 | -7.28061 | 287 ft | 3 kts | 71° |
| 2026-04-29 21:29 | 62.06697 | -7.28114 | 287 ft | 3 kts | 71° |
| 2026-04-29 21:29 | 62.06694 | -7.28160 | 287 ft | 0 kts | 102° |
| 2026-04-29 21:34 | 62.06694 | -7.28151 | 287 ft | 1 kts | 102° |
| 2026-04-29 21:35 | 62.06691 | -7.28121 | 287 ft | 2 kts | 102° |
| 2026-04-29 21:35 | 62.06685 | -7.28072 | 287 ft | 3 kts | 115° |
| 2026-04-29 21:35 | 62.06663 | -7.28047 | 287 ft | 4 kts | 190° |
| 2026-04-29 21:35 | 62.06621 | -7.28076 | 287 ft | 9 kts | 194° |
| 2026-04-29 21:36 | 62.06558 | -7.28089 | 287 ft | 9 kts | 189° |
| 2026-04-29 21:36 | 62.06500 | -7.28142 | 289 ft | 9 kts | 224° |
| 2026-04-29 21:36 | 62.06504 | -7.28345 | 288 ft | 16 kts | 295° |
| 2026-04-29 21:36 | 62.06564 | -7.28577 | 283 ft | 19 kts | 305° |
| 2026-04-29 21:37 | 62.06635 | -7.28841 | 277 ft | 21 kts | 296° |
| 2026-04-29 21:37 | 62.06689 | -7.29118 | 275 ft | 18 kts | 282° |
| 2026-04-29 21:37 | 62.06707 | -7.29154 | 276 ft | 4 kts | 129° |
| 2026-04-29 21:37 | 62.06697 | -7.29114 | 276 ft | 0 kts | 111° |
| 2026-04-29 21:38 | 62.06696 | -7.29110 | 275 ft | 0 kts | 111° |
| 2026-04-29 21:38 | 62.06695 | -7.29105 | 275 ft | 0 kts | 111° |
| 2026-04-29 21:39 | 62.06694 | -7.29101 | 275 ft | 0 kts | 111° |
| 2026-04-29 21:39 | 62.06692 | -7.29087 | 275 ft | 0 kts | 110° |
| 2026-04-29 21:40 | 62.06676 | -7.29009 | 276 ft | 28 kts | 115° |
| 2026-04-29 21:40 | 62.06451 | -7.28155 | 290 ft | 100 kts | 115° |
| 2026-04-29 21:40 | 62.06036 | -7.26423 | 260 ft | 162 kts | 111° |
| 2026-04-29 21:40 | 62.05580 | -7.24293 | 946 ft | 152 kts | 126° |
| 2026-04-29 21:41 | 62.05076 | -7.22375 | 1588 ft | 153 kts | 128° |
| 2026-04-29 21:41 | 62.04547 | -7.20343 | 2073 ft | 162 kts | 128° |
| 2026-04-29 21:41 | 62.03988 | -7.18187 | 2483 ft | 176 kts | 128° |
| 2026-04-29 21:41 | 62.03388 | -7.15834 | 2768 ft | 186 kts | 127° |
| 2026-04-29 21:42 | 62.02758 | -7.13332 | 3030 ft | 198 kts | 126° |
| 2026-04-29 21:42 | 62.02088 | -7.10660 | 3301 ft | 211 kts | 125° |
| 2026-04-29 21:42 | 62.01628 | -7.08821 | 3476 ft | 219 kts | 125° |
| 2026-04-29 21:42 | 62.00671 | -7.04863 | 3902 ft | 234 kts | 123° |
| 2026-04-29 21:43 | 61.99911 | -7.01574 | 4096 ft | 255 kts | 122° |
| 2026-04-29 21:43 | 61.99114 | -6.98111 | 4464 ft | 270 kts | 122° |
| 2026-04-29 21:43 | 61.98290 | -6.94507 | 5081 ft | 275 kts | 122° |
| 2026-04-29 21:43 | 61.97452 | -6.90841 | 5769 ft | 277 kts | 122° |
| 2026-04-29 21:44 | 61.96615 | -6.87194 | 6422 ft | 280 kts | 122° |
| 2026-04-29 21:44 | 61.95761 | -6.83489 | 7064 ft | 283 kts | 122° |
| 2026-04-29 21:44 | 61.94900 | -6.79766 | 7697 ft | 286 kts | 123° |
| 2026-04-29 21:44 | 61.94014 | -6.75948 | 8341 ft | 288 kts | 123° |
| 2026-04-29 21:45 | 61.93131 | -6.72148 | 8970 ft | 290 kts | 123° |
| 2026-04-29 21:45 | 61.92234 | -6.68301 | 9583 ft | 293 kts | 123° |
| 2026-04-29 21:45 | 61.91343 | -6.64483 | 10155 ft | 296 kts | 123° |
| 2026-04-29 21:45 | 61.90423 | -6.60551 | 10677 ft | 301 kts | 123° |
| 2026-04-29 21:46 | 61.89478 | -6.56504 | 10942 ft | 315 kts | 123° |
| 2026-04-29 21:46 | 61.88490 | -6.52259 | 11201 ft | 329 kts | 122° |
| 2026-04-29 21:46 | 61.87457 | -6.47809 | 11456 ft | 343 kts | 122° |
| 2026-04-29 21:46 | 61.86397 | -6.43248 | 11757 ft | 354 kts | 122° |
| 2026-04-29 21:47 | 61.85303 | -6.38537 | 12260 ft | 359 kts | 122° |
| 2026-04-29 21:47 | 61.84201 | -6.33780 | 12827 ft | 361 kts | 123° |
| 2026-04-29 21:47 | 61.83094 | -6.29025 | 13373 ft | 363 kts | 123° |
| 2026-04-29 21:47 | 61.81977 | -6.24250 | 13882 ft | 366 kts | 123° |
| 2026-04-29 21:48 | 61.80856 | -6.19477 | 14396 ft | 368 kts | 123° |
| 2026-04-29 21:48 | 61.79712 | -6.14623 | 14899 ft | 371 kts | 123° |
| 2026-04-29 21:48 | 61.78560 | -6.09741 | 15405 ft | 374 kts | 123° |
| 2026-04-29 21:48 | 61.77402 | -6.04844 | 15886 ft | 376 kts | 123° |
| 2026-04-29 21:49 | 61.76219 | -5.99854 | 16367 ft | 379 kts | 123° |
| 2026-04-29 21:49 | 61.75039 | -5.94886 | 16825 ft | 382 kts | 123° |
| 2026-04-29 21:49 | 61.73859 | -5.89933 | 17284 ft | 385 kts | 123° |
| 2026-04-29 21:49 | 61.72649 | -5.84860 | 17729 ft | 388 kts | 123° |
| 2026-04-29 21:50 | 61.71439 | -5.79799 | 18176 ft | 390 kts | 123° |
| 2026-04-29 21:50 | 61.70217 | -5.74705 | 18631 ft | 392 kts | 123° |
| 2026-04-29 21:50 | 61.68990 | -5.69594 | 19067 ft | 394 kts | 123° |
| 2026-04-29 21:50 | 61.67743 | -5.64422 | 19492 ft | 397 kts | 122° |
| 2026-04-29 21:51 | 61.66507 | -5.59301 | 19911 ft | 399 kts | 122° |
| 2026-04-29 21:51 | 61.65252 | -5.54118 | 20302 ft | 401 kts | 122° |
| 2026-04-29 21:51 | 61.62709 | -5.43649 | 21091 ft | 406 kts | 122° |
| 2026-04-29 21:52 | 61.61429 | -5.38396 | 21465 ft | 408 kts | 122° |
| 2026-04-29 21:52 | 61.60132 | -5.33087 | 21835 ft | 411 kts | 123° |
| 2026-04-29 21:52 | 61.58831 | -5.27776 | 22206 ft | 412 kts | 122° |
| 2026-04-29 21:52 | 61.57507 | -5.22382 | 22577 ft | 414 kts | 122° |
| 2026-04-29 21:53 | 61.56202 | -5.17076 | 22935 ft | 416 kts | 122° |
| 2026-04-29 21:53 | 61.54874 | -5.11695 | 23292 ft | 418 kts | 122° |
| 2026-04-29 21:53 | 61.53540 | -5.06297 | 23633 ft | 420 kts | 122° |
| 2026-04-29 21:53 | 61.52182 | -5.00819 | 23952 ft | 422 kts | 122° |
| 2026-04-29 21:54 | 61.50842 | -4.95434 | 24276 ft | 424 kts | 122° |
| 2026-04-29 21:54 | 61.49470 | -4.89926 | 24583 ft | 426 kts | 122° |
| 2026-04-29 21:54 | 61.48120 | -4.84522 | 24879 ft | 428 kts | 122° |
| 2026-04-29 21:54 | 61.46741 | -4.79019 | 25183 ft | 429 kts | 122° |
| 2026-04-29 21:55 | 61.45352 | -4.73487 | 25473 ft | 432 kts | 122° |
| 2026-04-29 21:55 | 61.43943 | -4.67883 | 25752 ft | 434 kts | 122° |
| 2026-04-29 21:55 | 61.42541 | -4.62326 | 26028 ft | 436 kts | 122° |
| 2026-04-29 21:55 | 61.41132 | -4.56760 | 26295 ft | 438 kts | 122° |
| 2026-04-29 21:56 | 61.39709 | -4.51146 | 26554 ft | 440 kts | 122° |
| 2026-04-29 21:56 | 61.38285 | -4.45547 | 26815 ft | 442 kts | 122° |
| 2026-04-29 21:56 | 61.36837 | -4.39864 | 27074 ft | 444 kts | 121° |
| 2026-04-29 21:56 | 61.35388 | -4.34193 | 27328 ft | 446 kts | 122° |
| 2026-04-29 21:57 | 61.33949 | -4.28581 | 27593 ft | 447 kts | 122° |
| 2026-04-29 21:57 | 61.32478 | -4.22854 | 27849 ft | 448 kts | 122° |
| 2026-04-29 21:57 | 61.31007 | -4.17141 | 28077 ft | 450 kts | 122° |
| 2026-04-29 21:57 | 61.29524 | -4.11397 | 28299 ft | 452 kts | 122° |
| 2026-04-29 21:58 | 61.28045 | -4.05681 | 28522 ft | 454 kts | 122° |
| 2026-04-29 21:58 | 61.26536 | -3.99870 | 28736 ft | 456 kts | 122° |
| 2026-04-29 21:58 | 61.25044 | -3.94136 | 28958 ft | 457 kts | 122° |
| 2026-04-29 21:58 | 61.23540 | -3.88371 | 29172 ft | 459 kts | 122° |
| 2026-04-29 21:59 | 61.22018 | -3.82545 | 29372 ft | 460 kts | 122° |
| 2026-04-29 21:59 | 61.20485 | -3.76697 | 29616 ft | 461 kts | 122° |
| 2026-04-29 21:59 | 61.18971 | -3.70935 | 29904 ft | 460 kts | 122° |
| 2026-04-29 21:59 | 61.17433 | -3.65102 | 30179 ft | 460 kts | 122° |
| 2026-04-29 22:00 | 61.15911 | -3.59343 | 30434 ft | 460 kts | 122° |
| 2026-04-29 22:00 | 61.14388 | -3.53596 | 30683 ft | 460 kts | 122° |
| 2026-04-29 22:00 | 61.12853 | -3.47818 | 30927 ft | 460 kts | 121° |
| 2026-04-29 22:00 | 61.11396 | -3.42349 | 31163 ft | 459 kts | 121° |
| 2026-04-29 22:01 | 61.10091 | -3.37460 | 31373 ft | 459 kts | 121° |
| 2026-04-29 22:01 | 61.08608 | -3.31919 | 31624 ft | 458 kts | 122° |
| 2026-04-29 22:01 | 61.07059 | -3.26142 | 31899 ft | 457 kts | 122° |
| 2026-04-29 22:01 | 61.05791 | -3.21422 | 32109 ft | 456 kts | 122° |
| 2026-04-29 22:02 | 61.04260 | -3.15742 | 32346 ft | 455 kts | 122° |
| 2026-04-29 22:02 | 61.02712 | -3.10016 | 32575 ft | 455 kts | 122° |
| 2026-04-29 22:02 | 61.01188 | -3.04391 | 32791 ft | 454 kts | 122° |
| 2026-04-29 22:02 | 60.99603 | -2.98775 | 32999 ft | 453 kts | 124° |
| 2026-04-29 22:03 | 60.97916 | -2.93358 | 33214 ft | 452 kts | 125° |
| 2026-04-29 22:03 | 60.96205 | -2.87914 | 33433 ft | 451 kts | 125° |
| 2026-04-29 22:03 | 60.94526 | -2.82586 | 33632 ft | 451 kts | 125° |
| 2026-04-29 22:03 | 60.92815 | -2.77170 | 33844 ft | 450 kts | 125° |
| 2026-04-29 22:04 | 60.91131 | -2.71849 | 34046 ft | 450 kts | 125° |
| 2026-04-29 22:04 | 60.89434 | -2.66500 | 34232 ft | 449 kts | 125° |
| 2026-04-29 22:04 | 60.87717 | -2.61099 | 34435 ft | 449 kts | 125° |
| 2026-04-29 22:04 | 60.86090 | -2.55993 | 34622 ft | 448 kts | 125° |
| 2026-04-29 22:05 | 60.84381 | -2.50644 | 34797 ft | 448 kts | 125° |
| 2026-04-29 22:05 | 60.82669 | -2.45298 | 34957 ft | 448 kts | 125° |
| 2026-04-29 22:05 | 60.79254 | -2.34673 | 35210 ft | 450 kts | 126° |
| 2026-04-29 22:06 | 60.77529 | -2.29319 | 35341 ft | 451 kts | 126° |
| 2026-04-29 22:06 | 60.74081 | -2.18660 | 35391 ft | 452 kts | 126° |
| 2026-04-29 22:07 | 60.70620 | -2.08013 | 35399 ft | 452 kts | 126° |
| 2026-04-29 22:07 | 60.67143 | -1.97360 | 35400 ft | 452 kts | 126° |
| 2026-04-29 22:08 | 60.63687 | -1.86825 | 35407 ft | 451 kts | 126° |
| 2026-04-29 22:08 | 60.60191 | -1.76212 | 35413 ft | 451 kts | 126° |
| 2026-04-29 22:09 | 60.56710 | -1.65696 | 35415 ft | 451 kts | 126° |
| 2026-04-29 22:09 | 60.53203 | -1.55148 | 35420 ft | 451 kts | 126° |
| 2026-04-29 22:10 | 60.49699 | -1.44659 | 35416 ft | 452 kts | 125° |
| 2026-04-29 22:10 | 60.46172 | -1.34147 | 35419 ft | 452 kts | 126° |
| 2026-04-29 22:11 | 60.42639 | -1.23661 | 35418 ft | 452 kts | 126° |
| 2026-04-29 22:11 | 60.39105 | -1.13223 | 35422 ft | 452 kts | 126° |
| 2026-04-29 22:12 | 60.35554 | -1.02783 | 35422 ft | 452 kts | 126° |
| 2026-04-29 22:12 | 60.31999 | -0.92371 | 35431 ft | 452 kts | 126° |
| 2026-04-29 22:13 | 60.28443 | -0.82009 | 35425 ft | 451 kts | 126° |
| 2026-04-29 22:13 | 60.24882 | -0.71679 | 35437 ft | 452 kts | 126° |
| 2026-04-29 22:14 | 60.21298 | -0.61324 | 35438 ft | 453 kts | 126° |
| 2026-04-29 22:14 | 60.17691 | -0.50952 | 35447 ft | 454 kts | 126° |
| 2026-04-29 22:15 | 60.14106 | -0.40686 | 35446 ft | 453 kts | 126° |
| 2026-04-29 22:15 | 60.10483 | -0.30360 | 35346 ft | 454 kts | 127° |
| 2026-04-29 22:16 | 60.06855 | -0.20065 | 35432 ft | 455 kts | 127° |
| 2026-04-29 22:16 | 60.03213 | -0.09781 | 35447 ft | 455 kts | 127° |
| 2026-04-29 22:17 | 59.99576 | 0.00491 | 35448 ft | 455 kts | 126° |
| 2026-04-29 22:17 | 59.97866 | 0.05797 | 35557 ft | 456 kts | 123° |
| 2026-04-29 22:17 | 59.96217 | 0.11118 | 35493 ft | 456 kts | 123° |
| 2026-04-29 22:18 | 59.92881 | 0.21856 | 35462 ft | 457 kts | 123° |
| 2026-04-29 22:18 | 59.89547 | 0.32534 | 35457 ft | 457 kts | 123° |
| 2026-04-29 22:19 | 59.86195 | 0.43215 | 35459 ft | 456 kts | 123° |
| 2026-04-29 22:19 | 59.82828 | 0.53892 | 35464 ft | 456 kts | 123° |
| 2026-04-29 22:20 | 59.79457 | 0.64531 | 35468 ft | 457 kts | 123° |
| 2026-04-29 22:20 | 59.76085 | 0.75128 | 35473 ft | 456 kts | 124° |
| 2026-04-29 22:21 | 59.72706 | 0.85696 | 35474 ft | 456 kts | 124° |
| 2026-04-29 22:21 | 59.69332 | 0.96203 | 35474 ft | 456 kts | 124° |
| 2026-04-29 22:22 | 59.65923 | 1.06769 | 35471 ft | 456 kts | 124° |
| 2026-04-29 22:22 | 59.62510 | 1.17298 | 35472 ft | 457 kts | 123° |
| 2026-04-29 22:23 | 59.59086 | 1.27817 | 35473 ft | 457 kts | 123° |
| 2026-04-29 22:23 | 59.55659 | 1.38297 | 35474 ft | 457 kts | 123° |
| 2026-04-29 22:24 | 59.52233 | 1.48729 | 35475 ft | 457 kts | 123° |
| 2026-04-29 22:24 | 59.48774 | 1.59211 | 35479 ft | 457 kts | 123° |
| 2026-04-29 22:25 | 59.45322 | 1.69629 | 35481 ft | 457 kts | 124° |
| 2026-04-29 22:25 | 59.41857 | 1.80038 | 35481 ft | 457 kts | 124° |
| 2026-04-29 22:26 | 59.38388 | 1.90413 | 35483 ft | 457 kts | 124° |
| 2026-04-29 22:26 | 59.34900 | 2.00799 | 35487 ft | 457 kts | 124° |
| 2026-04-29 22:27 | 59.31424 | 2.11103 | 35491 ft | 457 kts | 124° |
| 2026-04-29 22:27 | 59.27926 | 2.21427 | 35491 ft | 456 kts | 124° |
| 2026-04-29 22:28 | 59.24440 | 2.31669 | 35491 ft | 456 kts | 124° |
| 2026-04-29 22:28 | 59.20929 | 2.41942 | 35491 ft | 456 kts | 124° |
| 2026-04-29 22:29 | 59.18000 | 2.50477 | 35491 ft | 456 kts | 124° |
| 2026-04-29 22:29 | 59.13888 | 2.62414 | 35492 ft | 456 kts | 124° |
| 2026-04-29 22:30 | 59.10370 | 2.72574 | 35495 ft | 455 kts | 124° |
| 2026-04-29 22:30 | 59.06849 | 2.82698 | 35496 ft | 455 kts | 124° |
| 2026-04-29 22:31 | 59.03304 | 2.92847 | 35498 ft | 455 kts | 124° |
| 2026-04-29 22:31 | 58.99759 | 3.02951 | 35503 ft | 455 kts | 124° |
| 2026-04-29 22:32 | 58.96195 | 3.13070 | 35513 ft | 455 kts | 124° |
| 2026-04-29 22:32 | 58.92654 | 3.23084 | 35498 ft | 454 kts | 124° |
| 2026-04-29 22:33 | 58.89094 | 3.33103 | 35497 ft | 453 kts | 124° |
| 2026-04-29 22:33 | 58.85515 | 3.43138 | 35498 ft | 454 kts | 124° |
| 2026-04-29 22:34 | 58.81946 | 3.53099 | 35440 ft | 454 kts | 124° |
| 2026-04-29 22:34 | 58.78357 | 3.63070 | 35509 ft | 454 kts | 124° |
| 2026-04-29 22:35 | 58.74746 | 3.73065 | 35500 ft | 454 kts | 125° |
| 2026-04-29 22:35 | 58.71164 | 3.82937 | 35495 ft | 454 kts | 125° |
| 2026-04-29 22:36 | 58.67547 | 3.92866 | 35495 ft | 454 kts | 125° |
| 2026-04-29 22:36 | 58.63948 | 4.02704 | 35490 ft | 453 kts | 125° |
| 2026-04-29 22:37 | 58.60326 | 4.12565 | 35489 ft | 453 kts | 125° |
| 2026-04-29 22:37 | 58.56689 | 4.22424 | 35487 ft | 453 kts | 125° |
| 2026-04-29 22:38 | 58.53061 | 4.32215 | 35481 ft | 453 kts | 125° |
| 2026-04-29 22:38 | 58.49418 | 4.42006 | 35483 ft | 454 kts | 124° |
| 2026-04-29 22:39 | 58.45781 | 4.51744 | 35481 ft | 454 kts | 124° |
| 2026-04-29 22:39 | 58.42119 | 4.61508 | 35477 ft | 453 kts | 124° |
| 2026-04-29 22:40 | 58.38461 | 4.71225 | 35479 ft | 453 kts | 125° |
| 2026-04-29 22:40 | 58.34794 | 4.80921 | 35470 ft | 453 kts | 125° |
| 2026-04-29 22:41 | 58.31127 | 4.90580 | 35471 ft | 452 kts | 125° |
| 2026-04-29 22:41 | 58.27447 | 5.00230 | 35474 ft | 453 kts | 125° |
| 2026-04-29 22:42 | 58.23764 | 5.09853 | 35468 ft | 453 kts | 125° |
| 2026-04-29 22:42 | 58.20068 | 5.19473 | 35469 ft | 454 kts | 125° |
| 2026-04-29 22:43 | 58.16340 | 5.29135 | 35465 ft | 454 kts | 125° |
| 2026-04-29 22:43 | 58.12628 | 5.38718 | 35462 ft | 453 kts | 125° |
| 2026-04-29 22:44 | 58.08900 | 5.48299 | 35461 ft | 453 kts | 125° |
| 2026-04-29 22:44 | 58.05179 | 5.57826 | 35465 ft | 453 kts | 124° |
| 2026-04-29 22:45 | 58.01414 | 5.67425 | 35460 ft | 454 kts | 126° |
| 2026-04-29 22:45 | 57.97673 | 5.76928 | 35458 ft | 454 kts | 126° |
| 2026-04-29 22:46 | 57.93927 | 5.86409 | 35459 ft | 454 kts | 126° |
| 2026-04-29 22:46 | 57.90165 | 5.95889 | 35458 ft | 453 kts | 125° |
| 2026-04-29 22:47 | 57.86413 | 6.05305 | 35452 ft | 453 kts | 125° |
| 2026-04-29 22:47 | 57.82643 | 6.14728 | 35451 ft | 454 kts | 125° |
| 2026-04-29 22:48 | 57.78841 | 6.24196 | 35444 ft | 455 kts | 125° |
| 2026-04-29 22:48 | 57.75034 | 6.33641 | 35444 ft | 455 kts | 125° |
| 2026-04-29 22:49 | 57.71223 | 6.43054 | 35435 ft | 456 kts | 125° |
| 2026-04-29 22:49 | 57.67407 | 6.52446 | 35442 ft | 455 kts | 125° |
| 2026-04-29 22:50 | 57.63587 | 6.61807 | 35432 ft | 456 kts | 124° |
| 2026-04-29 22:50 | 57.59760 | 6.71153 | 35437 ft | 456 kts | 125° |
| 2026-04-29 22:51 | 57.55913 | 6.80511 | 35433 ft | 456 kts | 125° |
| 2026-04-29 22:51 | 57.50147 | 6.94467 | 35441 ft | 457 kts | 125° |
| 2026-04-29 22:52 | 57.46263 | 7.03821 | 35452 ft | 456 kts | 125° |
| 2026-04-29 22:52 | 57.42398 | 7.13100 | 35445 ft | 456 kts | 125° |
| 2026-04-29 22:53 | 57.38528 | 7.22345 | 35453 ft | 457 kts | 125° |
| 2026-04-29 22:53 | 57.34623 | 7.31641 | 35452 ft | 457 kts | 124° |
| 2026-04-29 22:54 | 57.30742 | 7.40844 | 35454 ft | 456 kts | 124° |
| 2026-04-29 22:54 | 57.26859 | 7.50019 | 35449 ft | 456 kts | 124° |
| 2026-04-29 22:55 | 57.22931 | 7.59261 | 35446 ft | 456 kts | 124° |
| 2026-04-29 22:55 | 57.19025 | 7.68423 | 35450 ft | 457 kts | 125° |
| 2026-04-29 22:56 | 57.15132 | 7.77513 | 35454 ft | 457 kts | 125° |
| 2026-04-29 22:56 | 57.11175 | 7.86716 | 35452 ft | 457 kts | 124° |
| 2026-04-29 22:57 | 57.07228 | 7.95867 | 35452 ft | 457 kts | 125° |
| 2026-04-29 22:57 | 57.03298 | 8.04942 | 35446 ft | 456 kts | 124° |
| 2026-04-29 22:58 | 56.99361 | 8.13997 | 35448 ft | 456 kts | 124° |
| 2026-04-29 22:58 | 56.95410 | 8.23051 | 35457 ft | 457 kts | 124° |
| 2026-04-29 22:59 | 56.91458 | 8.32076 | 35463 ft | 457 kts | 124° |
| 2026-04-29 22:59 | 56.87478 | 8.41125 | 35466 ft | 457 kts | 124° |
| 2026-04-29 23:00 | 56.83507 | 8.50121 | 35469 ft | 457 kts | 124° |
| 2026-04-29 23:00 | 56.79527 | 8.59108 | 35472 ft | 456 kts | 124° |
| 2026-04-29 23:01 | 56.75534 | 8.68084 | 35467 ft | 457 kts | 125° |
| 2026-04-29 23:01 | 56.71548 | 8.77020 | 35473 ft | 456 kts | 125° |
| 2026-04-29 23:02 | 56.67555 | 8.85931 | 35471 ft | 457 kts | 124° |
| 2026-04-29 23:02 | 56.63552 | 8.94834 | 35475 ft | 457 kts | 125° |
| 2026-04-29 23:03 | 56.59539 | 9.03726 | 35473 ft | 457 kts | 124° |
| 2026-04-29 23:03 | 56.55519 | 9.12599 | 35475 ft | 456 kts | 124° |
| 2026-04-29 23:04 | 56.51516 | 9.21398 | 35475 ft | 455 kts | 124° |
| 2026-04-29 23:04 | 56.47491 | 9.30221 | 34792 ft | 457 kts | 124° |
| 2026-04-29 23:05 | 56.45478 | 9.34619 | 34160 ft | 457 kts | 124° |
| 2026-04-29 23:05 | 56.43443 | 9.39060 | 33533 ft | 458 kts | 124° |
| 2026-04-29 23:05 | 56.41412 | 9.43484 | 32907 ft | 460 kts | 124° |
| 2026-04-29 23:05 | 56.39379 | 9.47904 | 32280 ft | 462 kts | 124° |
| 2026-04-29 23:06 | 56.37351 | 9.52306 | 31664 ft | 463 kts | 124° |
| 2026-04-29 23:06 | 56.35300 | 9.56748 | 31037 ft | 466 kts | 124° |
| 2026-04-29 23:06 | 56.33224 | 9.61237 | 30411 ft | 468 kts | 124° |
| 2026-04-29 23:06 | 56.31153 | 9.65705 | 29809 ft | 468 kts | 125° |
| 2026-04-29 23:07 | 56.29067 | 9.70194 | 29201 ft | 465 kts | 125° |
| 2026-04-29 23:07 | 56.26999 | 9.74631 | 28596 ft | 462 kts | 125° |
| 2026-04-29 23:07 | 56.24942 | 9.79037 | 27992 ft | 459 kts | 125° |
| 2026-04-29 23:07 | 56.22903 | 9.83401 | 27543 ft | 452 kts | 125° |
| 2026-04-29 23:08 | 56.20914 | 9.87643 | 27465 ft | 447 kts | 124° |
| 2026-04-29 23:08 | 56.18916 | 9.91910 | 27459 ft | 448 kts | 125° |
| 2026-04-29 23:08 | 56.16922 | 9.96164 | 27458 ft | 449 kts | 125° |
| 2026-04-29 23:08 | 56.14910 | 10.00445 | 27459 ft | 448 kts | 124° |
| 2026-04-29 23:09 | 56.12912 | 10.04690 | 27460 ft | 449 kts | 125° |
| 2026-04-29 23:09 | 56.10903 | 10.08945 | 27458 ft | 449 kts | 124° |
| 2026-04-29 23:09 | 56.08888 | 10.13205 | 27460 ft | 449 kts | 124° |
| 2026-04-29 23:09 | 56.06864 | 10.17477 | 27461 ft | 448 kts | 124° |
| 2026-04-29 23:10 | 56.04868 | 10.21684 | 27462 ft | 448 kts | 124° |
| 2026-04-29 23:10 | 56.02850 | 10.25929 | 27463 ft | 448 kts | 124° |
| 2026-04-29 23:10 | 56.00833 | 10.30163 | 27468 ft | 447 kts | 124° |
| 2026-04-29 23:10 | 55.98824 | 10.34374 | 27467 ft | 447 kts | 124° |
| 2026-04-29 23:11 | 55.96828 | 10.38551 | 27468 ft | 447 kts | 124° |
| 2026-04-29 23:11 | 55.94812 | 10.42758 | 27468 ft | 447 kts | 124° |
| 2026-04-29 23:11 | 55.92803 | 10.46949 | 27468 ft | 447 kts | 124° |
| 2026-04-29 23:11 | 55.90940 | 10.51306 | 27042 ft | 442 kts | 116° |
| 2026-04-29 23:12 | 55.89586 | 10.56156 | 26327 ft | 433 kts | 105° |
| 2026-04-29 23:12 | 55.88771 | 10.61218 | 25622 ft | 426 kts | 97° |
| 2026-04-29 23:12 | 55.88161 | 10.66328 | 24918 ft | 424 kts | 96° |
| 2026-04-29 23:12 | 55.87573 | 10.71444 | 24229 ft | 423 kts | 96° |
| 2026-04-29 23:13 | 55.86974 | 10.76576 | 23534 ft | 422 kts | 96° |
| 2026-04-29 23:13 | 55.86366 | 10.81646 | 22866 ft | 421 kts | 97° |